Time;durP1;ratioP1;P1;durP2;ratioP2;P2;SDS_P1;SDS_P2;PMS_P1;PMS_P2;Temp;Humidity;BMP_temperature;BMP_pressure;BME280_temperature;BME280_humidity;BME280_pressure;Samples;Min_cycle;Max_cycle;Signal;HPM_P1;HPM_P2
2023/03/08 00:01:21;;;;;;;;;;;;;;;9.10;90.69;99782.84;5101301;28;19912;-68
2023/03/08 00:03:46;;;;;;;;;;;;;;;9.05;90.52;99779.28;5100934;28;19965;-68
2023/03/08 00:06:13;;;;;;;;;;;;;;;8.97;90.75;99778.13;5099243;28;19920;-68
2023/03/08 00:08:38;;;;;;;;;;;;;;;8.93;90.55;99772.00;5101069;28;20383;-68
2023/03/08 00:11:04;;;;;;;;;;;;;;;8.90;90.56;99775.38;5100051;28;19912;-68
2023/03/08 00:13:30;;;;;;;;;;;;;;;8.80;90.12;99778.47;5099402;28;20373;-67
2023/03/08 00:15:58;;;;;;;;;;;;;;;8.63;90.70;99774.47;5104305;28;19919;-68
2023/03/08 00:18:23;;;;;;;;;;;;;;;8.57;90.79;99773.44;5096501;28;19920;-68
2023/03/08 00:20:56;;;;;;;;;;;;;;;8.47;91.10;99773.94;5091778;28;19908;-68
2023/03/08 00:23:22;;;;;;;;;;;;;;;8.44;91.49;99771.22;5100642;28;19930;-68
2023/03/08 00:25:51;;;;;;;;;;;;;;;8.44;91.34;99771.22;5104837;27;19912;-68
2023/03/08 00:28:16;;;;;;;;;;;;;;;8.45;90.64;99777.25;5114483;28;20365;-68
2023/03/08 00:30:41;;;;;;;;;;;;;;;8.44;90.39;99776.38;5114542;28;19915;-67
2023/03/08 00:33:06;;;;;;;;;;;;;;;8.41;90.49;99769.44;5114662;28;19940;-68
2023/03/08 00:35:32;;;;;;;;;;;;;;;8.28;90.99;99766.38;5114637;28;20032;-68
2023/03/08 00:37:57;;;;;;;;;;;;;;;8.19;91.46;99752.38;5114259;28;20405;-68
2023/03/08 00:40:22;;;;;;;;;;;;;;;7.91;92.60;99756.56;5114191;28;19958;-67
2023/03/08 00:42:47;;;;;;;;;;;;;;;7.91;93.56;99748.84;5114528;28;19922;-67
2023/03/08 00:45:13;;;;;;;;;;;;;;;7.94;93.82;99750.66;5114326;28;19949;-67
2023/03/08 00:47:38;;;;;;;;;;;;;;;7.95;93.90;99742.13;5114475;28;20395;-68
2023/03/08 00:50:04;;;;;;;;;;;;;;;7.99;93.34;99751.69;5114218;28;19907;-68
2023/03/08 00:52:29;;;;;;;;;;;;;;;8.06;92.28;99753.66;5114093;28;20396;-68
2023/03/08 00:54:54;;;;;;;;;;;;;;;7.96;91.87;99755.84;5113741;28;19915;-67
2023/03/08 00:57:20;;;;;;;;;;;;;;;7.70;92.99;99754.06;5113960;28;19989;-67
2023/03/08 00:59:45;;;;;;;;;;;;;;;7.37;95.36;99756.25;5113813;28;19912;-68
2023/03/08 01:02:11;;;;;;;;;;;;;;;6.94;97.54;99753.75;5112813;28;19933;-67
2023/03/08 01:04:36;;;;;;;;;;;;;;;6.78;99.12;99751.41;5113777;28;19958;-68
2023/03/08 01:07:01;;;;;;;;;;;;;;;6.59;100.00;99753.19;5113962;28;19911;-67
2023/03/08 01:09:27;;;;;;;;;;;;;;;6.35;100.00;99757.31;5113771;28;20369;-67
2023/03/08 01:11:52;;;;;;;;;;;;;;;6.36;100.00;99759.06;5113578;28;19942;-67
2023/03/08 01:14:17;;;;;;;;;;;;;;;6.48;100.00;99755.31;5113710;28;19911;-68
2023/03/08 01:16:43;;;;;;;;;;;;;;;6.55;100.00;99755.56;5113880;28;19912;-67
2023/03/08 01:19:08;;;;;;;;;;;;;;;6.66;100.00;99761.16;5113877;28;20003;-67
2023/03/08 01:21:34;;;;;;;;;;;;;;;6.52;100.00;99771.72;5113864;28;19968;-67
2023/03/08 01:23:59;;;;;;;;;;;;;;;6.04;100.00;99764.53;5113559;28;20316;-67
2023/03/08 01:26:25;;;;;;;;;;;;;;;5.80;100.00;99766.88;5113302;28;20010;-67
2023/03/08 01:28:51;;;;;;;;;;;;;;;5.82;100.00;99753.31;5113109;28;20486;-67
2023/03/08 01:31:20;;;;;;;;;;;;;;;5.82;100.00;99752.44;5113668;28;19998;-67
2023/03/08 01:33:46;;;;;;;;;;;;;;;5.92;100.00;99756.28;5112966;28;19916;-68
2023/03/08 01:36:16;;;;;;;;;;;;;;;6.01;100.00;99763.50;5113416;28;19912;-69
2023/03/08 01:38:41;;;;;;;;;;;;;;;6.23;100.00;99758.53;5113640;28;19922;-68
2023/03/08 01:41:07;;;;;;;;;;;;;;;6.42;100.00;99765.31;5113366;28;19911;-67
2023/03/08 01:43:34;;;;;;;;;;;;;;;6.35;100.00;99753.03;5113020;28;19915;-67
2023/03/08 01:46:02;;;;;;;;;;;;;;;6.39;100.00;99762.63;5113400;28;19918;-67
2023/03/08 01:48:32;;;;;;;;;;;;;;;6.56;100.00;99760.75;5112860;28;19912;-67
2023/03/08 01:50:59;;;;;;;;;;;;;;;6.56;100.00;99765.88;5113020;28;19911;-67
2023/03/08 01:53:25;;;;;;;;;;;;;;;6.60;100.00;99761.75;5107101;28;19916;-68
2023/03/08 01:55:51;;;;;;;;;;;;;;;6.71;100.00;99757.94;5092074;28;19993;-68
2023/03/08 01:58:16;;;;;;;;;;;;;;;6.72;100.00;99758.84;5092645;28;19963;-68
2023/03/08 02:00:41;;;;;;;;;;;;;;;6.82;100.00;99755.81;5092507;28;20015;-68
2023/03/08 02:03:09;;;;;;;;;;;;;;;6.95;100.00;99762.31;5092352;28;20002;-68
2023/03/08 02:05:35;;;;;;;;;;;;;;;7.06;100.00;99766.19;5092653;28;19912;-68
2023/03/08 02:08:00;;;;;;;;;;;;;;;7.11;98.40;99774.94;5091506;28;20162;-68
2023/03/08 02:10:26;;;;;;;;;;;;;;;6.91;97.31;99771.56;5092164;28;19970;-67
2023/03/08 02:12:51;;;;;;;;;;;;;;;6.73;98.50;99769.16;5092278;28;19935;-67
2023/03/08 02:15:18;;;;;;;;;;;;;;;6.70;99.23;99770.72;5092172;28;19912;-68
2023/03/08 02:17:44;;;;;;;;;;;;;;;6.48;99.94;99764.72;5092699;28;19916;-67
2023/03/08 02:20:15;;;;;;;;;;;;;;;6.37;100.00;99771.03;5092084;28;19912;-68
2023/03/08 02:22:41;;;;;;;;;;;;;;;6.14;100.00;99765.81;5092358;28;19912;-67
2023/03/08 02:25:16;;;;;;;;;;;;;;;6.07;100.00;99766.34;5091849;28;19912;-67
2023/03/08 02:27:42;;;;;;;;;;;;;;;5.96;100.00;99771.00;5091986;28;19912;-67
2023/03/08 02:30:09;;;;;;;;;;;;;;;5.82;100.00;99778.06;5092094;28;19908;-67
2023/03/08 02:32:34;;;;;;;;;;;;;;;5.78;100.00;99787.28;5072624;28;20390;-67
2023/03/08 02:35:00;;;;;;;;;;;;;;;5.48;100.00;99781.63;5091809;28;19908;-67
2023/03/08 02:37:26;;;;;;;;;;;;;;;5.00;100.00;99798.19;5091626;28;19987;-67
2023/03/08 02:39:51;;;;;;;;;;;;;;;4.75;100.00;99793.56;5091025;28;19995;-67
2023/03/08 02:42:16;;;;;;;;;;;;;;;4.80;100.00;99791.25;5089559;28;19935;-67
2023/03/08 02:44:42;;;;;;;;;;;;;;;4.93;100.00;99793.56;5091810;28;19904;-67
2023/03/08 02:47:07;;;;;;;;;;;;;;;4.99;100.00;99798.97;5091459;28;19912;-67
2023/03/08 02:49:33;;;;;;;;;;;;;;;5.12;100.00;99799.56;5091572;28;19904;-67
2023/03/08 02:51:58;;;;;;;;;;;;;;;5.20;100.00;99803.38;5091393;28;19919;-67
2023/03/08 02:54:23;;;;;;;;;;;;;;;5.30;100.00;99803.00;5109699;28;19926;-67
2023/03/08 02:56:48;;;;;;;;;;;;;;;5.44;100.00;99807.91;5111890;28;20349;-68
2023/03/08 02:59:14;;;;;;;;;;;;;;;5.60;100.00;99802.69;5111904;28;19914;-67
2023/03/08 03:01:39;;;;;;;;;;;;;;;5.61;100.00;99806.13;5111910;28;19908;-67
2023/03/08 03:04:04;;;;;;;;;;;;;;;5.62;100.00;99801.09;5111739;28;20320;-67
2023/03/08 03:06:31;;;;;;;;;;;;;;;5.51;100.00;99804.84;5111599;28;19959;-68
2023/03/08 03:08:56;;;;;;;;;;;;;;;5.60;100.00;99800.13;5111221;28;19915;-67
2023/03/08 03:11:22;;;;;;;;;;;;;;;5.71;100.00;99803.19;5111817;28;19965;-67
2023/03/08 03:13:52;;;;;;;;;;;;;;;5.81;100.00;99799.38;5100109;28;19920;-67
2023/03/08 03:16:18;;;;;;;;;;;;;;;5.79;99.39;99798.41;5091407;28;19911;-68
2023/03/08 03:18:43;;;;;;;;;;;;;;;5.51;99.33;99803.13;5091262;28;20349;-69
2023/03/08 03:21:10;;;;;;;;;;;;;;;5.45;100.00;99805.41;5091382;28;19916;-68
2023/03/08 03:23:35;;;;;;;;;;;;;;;5.47;100.00;99805.47;5091309;28;20309;-68
2023/03/08 03:26:08;;;;;;;;;;;;;;;5.45;100.00;99807.09;5091274;28;19912;-67
2023/03/08 03:28:33;;;;;;;;;;;;;;;5.51;100.00;99795.47;5091306;28;20347;-67
2023/03/08 03:30:58;;;;;;;;;;;;;;;5.64;100.00;99801.16;5091025;28;19912;-67
2023/03/08 03:33:24;;;;;;;;;;;;;;;5.63;98.84;99797.72;5090990;28;19947;-67
2023/03/08 03:35:49;;;;;;;;;;;;;;;5.67;99.16;99799.59;5090888;28;19911;-68
2023/03/08 03:38:14;;;;;;;;;;;;;;;5.69;97.07;99809.06;5091408;28;19912;-68
2023/03/08 03:40:40;;;;;;;;;;;;;;;5.52;98.36;99809.16;5091171;28;19959;-67
2023/03/08 03:43:05;;;;;;;;;;;;;;;5.50;98.77;99813.31;5090848;28;19977;-67
2023/03/08 03:45:30;;;;;;;;;;;;;;;5.30;97.53;99815.81;5090845;28;19912;-67
2023/03/08 03:47:56;;;;;;;;;;;;;;;4.98;98.23;99820.25;5090974;28;20522;-67
2023/03/08 03:50:21;;;;;;;;;;;;;;;4.41;100.00;99829.31;5091353;28;19908;-67
2023/03/08 03:52:47;;;;;;;;;;;;;;;4.13;100.00;99826.22;5090515;28;20489;-67
2023/03/08 03:55:12;;;;;;;;;;;;;;;3.77;100.00;99830.25;5091143;28;20351;-67
2023/03/08 03:57:37;;;;;;;;;;;;;;;3.36;100.00;99832.31;5095049;28;19916;-67
2023/03/08 04:00:03;;;;;;;;;;;;;;;3.23;100.00;99841.81;5094915;28;19911;-67
2023/03/08 04:02:29;;;;;;;;;;;;;;;3.33;100.00;99845.78;5094365;28;19972;-67
2023/03/08 04:04:54;;;;;;;;;;;;;;;3.29;100.00;99846.41;5094435;28;19920;-67
2023/03/08 04:07:19;;;;;;;;;;;;;;;3.29;100.00;99845.50;5094369;28;19922;-67
2023/03/08 04:09:46;;;;;;;;;;;;;;;3.39;100.00;99842.69;5094744;28;19923;-67
2023/03/08 04:12:11;;;;;;;;;;;;;;;3.48;100.00;99835.53;5094530;28;20300;-67
2023/03/08 04:14:39;;;;;;;;;;;;;;;3.63;100.00;99840.59;5094375;28;20006;-67
2023/03/08 04:17:04;;;;;;;;;;;;;;;3.63;100.00;99842.28;5094011;28;19917;-67
2023/03/08 04:19:29;;;;;;;;;;;;;;;3.50;100.00;99839.06;5093908;28;19923;-67
2023/03/08 04:21:54;;;;;;;;;;;;;;;3.29;100.00;99841.31;5094410;28;19912;-67
2023/03/08 04:24:20;;;;;;;;;;;;;;;3.16;100.00;99849.91;5094230;28;19915;-67
2023/03/08 04:26:45;;;;;;;;;;;;;;;3.02;100.00;99848.28;5108079;28;19991;-67
2023/03/08 04:29:11;;;;;;;;;;;;;;;3.05;100.00;99841.69;5114495;28;19916;-67
2023/03/08 04:31:36;;;;;;;;;;;;;;;3.03;100.00;99852.59;5114741;28;19947;-67
2023/03/08 04:34:01;;;;;;;;;;;;;;;2.97;100.00;99842.03;5114465;28;19915;-67
2023/03/08 04:36:27;;;;;;;;;;;;;;;2.90;100.00;99853.53;5104778;28;19969;-67
2023/03/08 04:38:53;;;;;;;;;;;;;;;2.87;100.00;99848.28;5103789;28;19916;-67
2023/03/08 04:41:18;;;;;;;;;;;;;;;2.99;100.00;99848.09;5098271;28;19916;-67
2023/03/08 04:43:51;;;;;;;;;;;;;;;3.16;100.00;99859.25;5103463;28;20000;-67
2023/03/08 04:46:17;;;;;;;;;;;;;;;3.15;100.00;99854.94;5104692;28;19916;-67
2023/03/08 04:48:43;;;;;;;;;;;;;;;3.32;100.00;99861.88;5080075;28;19981;-68
2023/03/08 04:51:10;;;;;;;;;;;;;;;3.48;100.00;99861.06;5093283;28;19915;-67
2023/03/08 04:53:37;;;;;;;;;;;;;;;3.64;100.00;99865.34;5114109;28;19916;-67
2023/03/08 04:56:03;;;;;;;;;;;;;;;3.66;100.00;99861.16;5110112;28;19924;-67
2023/03/08 04:58:29;;;;;;;;;;;;;;;3.84;100.00;99866.41;5113954;28;19918;-67
2023/03/08 05:00:55;;;;;;;;;;;;;;;3.88;100.00;99867.47;5110202;28;19911;-67
2023/03/08 05:03:20;;;;;;;;;;;;;;;3.78;100.00;99873.75;5104914;28;19916;-67
2023/03/08 05:05:46;;;;;;;;;;;;;;;3.86;100.00;99876.72;5109546;28;19926;-67
2023/03/08 05:08:12;;;;;;;;;;;;;;;3.82;100.00;99880.75;5112838;28;20025;-67
2023/03/08 05:10:37;;;;;;;;;;;;;;;3.89;100.00;99882.00;5113961;28;20417;-67
2023/03/08 05:13:02;;;;;;;;;;;;;;;3.83;100.00;99889.31;5113722;28;19912;-67
2023/03/08 05:15:28;;;;;;;;;;;;;;;3.84;100.00;99891.94;5113955;28;20270;-67
2023/03/08 05:17:53;;;;;;;;;;;;;;;3.99;100.00;99896.16;5113733;28;19954;-67
2023/03/08 05:20:18;;;;;;;;;;;;;;;4.08;100.00;99894.06;5113604;28;19916;-67
2023/03/08 05:22:44;;;;;;;;;;;;;;;4.26;100.00;99880.50;5113792;28;20380;-67
2023/03/08 05:25:09;;;;;;;;;;;;;;;4.43;100.00;99895.06;5112301;28;19919;-68
2023/03/08 05:27:35;;;;;;;;;;;;;;;4.59;100.00;99896.72;5112840;28;19919;-68
2023/03/08 05:30:00;;;;;;;;;;;;;;;4.72;100.00;99905.03;5113598;28;19907;-67
2023/03/08 05:32:26;;;;;;;;;;;;;;;4.76;100.00;99912.94;5113390;28;20300;-67
2023/03/08 05:34:51;;;;;;;;;;;;;;;4.85;100.00;99910.84;5113127;28;19915;-67
2023/03/08 05:37:17;;;;;;;;;;;;;;;4.89;100.00;99914.44;5113432;28;20308;-67
2023/03/08 05:39:42;;;;;;;;;;;;;;;4.94;100.00;99907.88;5113256;28;19908;-67
2023/03/08 05:42:07;;;;;;;;;;;;;;;4.99;100.00;99906.41;5113223;28;19911;-67
2023/03/08 05:44:34;;;;;;;;;;;;;;;5.12;100.00;99909.59;5113273;28;19934;-67
2023/03/08 05:47:00;;;;;;;;;;;;;;;5.21;100.00;99917.75;5112903;28;19912;-67
2023/03/08 05:49:25;;;;;;;;;;;;;;;5.26;99.82;99916.28;5112964;28;19922;-67
2023/03/08 05:51:50;;;;;;;;;;;;;;;5.35;98.90;99915.84;5113463;28;19923;-67
2023/03/08 05:54:16;;;;;;;;;;;;;;;5.32;98.76;99921.72;5093672;28;19984;-67
2023/03/08 05:56:41;;;;;;;;;;;;;;;5.26;98.79;99920.50;5113026;28;20409;-68
2023/03/08 05:59:06;;;;;;;;;;;;;;;5.27;100.00;99927.38;5112870;28;19919;-67
2023/03/08 06:01:31;;;;;;;;;;;;;;;5.26;100.00;99923.97;5112864;28;19920;-67
2023/03/08 06:03:57;;;;;;;;;;;;;;;5.01;100.00;99915.06;5112994;28;20022;-67
2023/03/08 06:06:24;;;;;;;;;;;;;;;4.74;100.00;99927.31;5112937;28;19919;-67
2023/03/08 06:08:49;;;;;;;;;;;;;;;4.75;100.00;99935.88;5112970;28;19912;-67
2023/03/08 06:11:14;;;;;;;;;;;;;;;5.01;100.00;99935.53;5112906;28;19919;-67
2023/03/08 06:13:40;;;;;;;;;;;;;;;5.17;100.00;99931.16;5112673;28;19977;-66
2023/03/08 06:16:06;;;;;;;;;;;;;;;5.37;100.00;99932.19;5112660;28;20297;-67
2023/03/08 06:18:32;;;;;;;;;;;;;;;5.59;100.00;99930.66;5112255;28;20358;-67
2023/03/08 06:21:02;;;;;;;;;;;;;;;5.81;100.00;99930.88;5112687;28;20624;-67
2023/03/08 06:23:28;;;;;;;;;;;;;;;6.04;100.00;99940.47;5112636;28;19911;-67
2023/03/08 06:25:54;;;;;;;;;;;;;;;6.13;100.00;99938.31;5112327;28;19915;-67
2023/03/08 06:28:20;;;;;;;;;;;;;;;6.30;100.00;99944.22;5112373;28;19976;-67
2023/03/08 06:30:48;;;;;;;;;;;;;;;6.42;100.00;99949.91;5112283;28;19919;-67
2023/03/08 06:33:14;;;;;;;;;;;;;;;6.48;100.00;99960.47;5112435;28;19923;-67
2023/03/08 06:35:40;;;;;;;;;;;;;;;6.60;100.00;99960.16;5112477;27;19912;-67
2023/03/08 06:38:05;;;;;;;;;;;;;;;6.74;100.00;99963.31;5112573;28;20053;-67
2023/03/08 06:40:30;;;;;;;;;;;;;;;6.87;100.00;99969.84;5112173;28;19943;-67
2023/03/08 06:42:56;;;;;;;;;;;;;;;6.99;100.00;99969.53;5112252;28;19918;-67
2023/03/08 06:45:21;;;;;;;;;;;;;;;7.16;100.00;99971.94;5112010;28;19934;-68
2023/03/08 06:47:46;;;;;;;;;;;;;;;7.17;100.00;99971.13;5112120;28;20010;-68
2023/03/08 06:50:12;;;;;;;;;;;;;;;7.33;100.00;99967.47;5112171;28;20019;-68
2023/03/08 06:52:37;;;;;;;;;;;;;;;7.41;100.00;99961.88;5112042;28;19911;-67
2023/03/08 06:55:03;;;;;;;;;;;;;;;7.57;100.00;99971.06;5111553;28;20437;-67
2023/03/08 06:57:28;;;;;;;;;;;;;;;7.75;100.00;99967.50;5111948;28;20018;-68
2023/03/08 06:59:53;;;;;;;;;;;;;;;7.86;100.00;99973.97;5111815;28;20013;-67
2023/03/08 07:02:19;;;;;;;;;;;;;;;7.47;100.00;99974.09;5112657;28;19919;-69
2023/03/08 07:04:44;;;;;;;;;;;;;;;7.37;100.00;99966.81;5106774;28;19920;-69
2023/03/08 07:07:09;;;;;;;;;;;;;;;7.56;100.00;99971.91;5089773;28;19934;-69
2023/03/08 07:09:34;;;;;;;;;;;;;;;7.61;100.00;99972.06;5091317;28;20069;-68
2023/03/08 07:12:00;;;;;;;;;;;;;;;7.63;100.00;99973.03;5091247;28;19920;-68
2023/03/08 07:14:25;;;;;;;;;;;;;;;7.84;100.00;99977.25;5091108;28;19919;-69
2023/03/08 07:16:50;;;;;;;;;;;;;;;8.16;100.00;99978.56;5091348;28;19916;-68
2023/03/08 07:19:16;;;;;;;;;;;;;;;8.38;100.00;99979.38;5091151;28;20332;-68
2023/03/08 07:21:43;;;;;;;;;;;;;;;8.61;100.00;99972.53;5091250;28;19923;-69
2023/03/08 07:24:09;;;;;;;;;;;;;;;8.90;100.00;99976.16;5091091;28;19947;-68
2023/03/08 07:26:34;;;;;;;;;;;;;;;8.68;100.00;99973.63;5091026;28;20447;-68
2023/03/08 07:28:59;;;;;;;;;;;;;;;8.85;100.00;99982.84;5091184;28;19935;-68
2023/03/08 07:31:25;;;;;;;;;;;;;;;9.15;100.00;99971.88;5090317;28;20309;-68
2023/03/08 07:33:51;;;;;;;;;;;;;;;9.04;100.00;99970.63;5090996;28;19919;-68
2023/03/08 07:36:16;;;;;;;;;;;;;;;8.73;100.00;99978.16;5091315;28;19916;-68
2023/03/08 07:38:41;;;;;;;;;;;;;;;8.61;100.00;99985.41;5091331;28;19920;-68
2023/03/08 07:41:07;;;;;;;;;;;;;;;8.79;100.00;99986.91;5091006;28;19916;-68
2023/03/08 07:43:32;;;;;;;;;;;;;;;8.87;100.00;99990.59;5091247;28;19916;-68
2023/03/08 07:45:58;;;;;;;;;;;;;;;8.86;100.00;99997.47;5090831;28;19915;-68
2023/03/08 07:48:24;;;;;;;;;;;;;;;9.04;100.00;99997.25;5091271;28;19916;-68
2023/03/08 07:50:49;;;;;;;;;;;;;;;9.44;100.00;99990.00;5090937;28;19908;-68
2023/03/08 07:53:14;;;;;;;;;;;;;;;9.77;100.00;99993.66;5090979;28;19916;-68
2023/03/08 07:55:40;;;;;;;;;;;;;;;9.99;100.00;99995.22;5071665;28;19990;-68
2023/03/08 07:58:05;;;;;;;;;;;;;;;9.85;100.00;99992.22;5090963;28;20003;-68
2023/03/08 08:00:30;;;;;;;;;;;;;;;9.91;100.00;99989.84;5090511;28;19908;-68
2023/03/08 08:02:56;;;;;;;;;;;;;;;10.28;99.11;99987.50;5090801;28;19919;-68
2023/03/08 08:05:21;;;;;;;;;;;;;;;10.40;99.64;99990.50;5090941;28;19912;-68
2023/03/08 08:07:47;;;;;;;;;;;;;;;10.25;100.00;99985.72;5090930;28;19989;-68
2023/03/08 08:10:12;;;;;;;;;;;;;;;10.40;100.00;99999.94;5090781;28;19919;-68
2023/03/08 08:12:38;;;;;;;;;;;;;;;10.67;98.67;99982.69;5090654;28;19916;-67
2023/03/08 08:15:03;;;;;;;;;;;;;;;10.81;96.80;99982.19;5090516;28;19912;-68
2023/03/08 08:17:28;;;;;;;;;;;;;;;11.02;94.28;99981.91;5090774;28;19949;-67
2023/03/08 08:19:54;;;;;;;;;;;;;;;11.13;93.94;99977.91;5090670;28;19970;-70
2023/03/08 08:22:19;;;;;;;;;;;;;;;11.26;94.01;99983.41;5091154;28;20293;-70
2023/03/08 08:24:44;;;;;;;;;;;;;;;11.38;93.94;99988.91;5073814;28;19916;-66
2023/03/08 08:27:10;;;;;;;;;;;;;;;11.53;92.56;99992.72;5078542;28;19926;-66
2023/03/08 08:29:35;;;;;;;;;;;;;;;11.60;92.65;99989.44;5089727;28;19916;-66
2023/03/08 08:32:01;;;;;;;;;;;;;;;11.43;93.73;99992.47;5089435;28;19915;-65
2023/03/08 08:34:26;;;;;;;;;;;;;;;11.68;92.11;99995.69;5089802;28;20344;-65
2023/03/08 08:36:52;;;;;;;;;;;;;;;11.73;92.09;99981.16;5090009;28;19916;-66
2023/03/08 08:39:17;;;;;;;;;;;;;;;11.70;92.42;99981.09;5090096;28;19934;-69
2023/03/08 08:41:43;;;;;;;;;;;;;;;11.95;90.68;99986.81;5090022;28;20351;-66
2023/03/08 08:44:08;;;;;;;;;;;;;;;12.07;89.09;99987.16;5093413;28;19942;-69
2023/03/08 08:46:34;;;;;;;;;;;;;;;12.22;88.53;99978.84;5093590;28;19912;-69
2023/03/08 08:48:59;;;;;;;;;;;;;;;12.41;86.82;99977.56;5093992;28;19912;-66
2023/03/08 08:51:25;;;;;;;;;;;;;;;12.46;86.24;99975.94;5094056;28;19908;-68
2023/03/08 08:53:51;;;;;;;;;;;;;;;12.51;86.98;99969.97;5093734;28;19977;-68
2023/03/08 08:56:20;;;;;;;;;;;;;;;12.59;85.56;99978.78;5094029;28;19916;-68
2023/03/08 08:58:47;;;;;;;;;;;;;;;12.64;84.40;99964.22;5093787;28;19924;-68
2023/03/08 09:01:17;;;;;;;;;;;;;;;12.88;80.80;99963.81;5093712;28;20064;-68
2023/03/08 09:03:43;;;;;;;;;;;;;;;12.88;80.72;99968.13;5093822;28;19916;-68
2023/03/08 09:06:08;;;;;;;;;;;;;;;12.96;81.46;99966.56;5093755;28;19912;-68
2023/03/08 09:08:33;;;;;;;;;;;;;;;13.05;81.80;99961.56;5093536;28;19920;-68
2023/03/08 09:11:07;;;;;;;;;;;;;;;13.11;80.57;99960.81;5093790;28;19919;-68
2023/03/08 09:13:33;;;;;;;;;;;;;;;13.15;81.58;99959.16;5091964;28;19912;-68
2023/03/08 09:15:58;;;;;;;;;;;;;;;13.25;81.50;99963.66;5093607;28;19926;-68
2023/03/08 09:18:23;;;;;;;;;;;;;;;13.37;81.85;99961.31;5093640;28;19957;-68
2023/03/08 09:20:48;;;;;;;;;;;;;;;13.49;81.49;99957.16;5093193;28;20002;-68
2023/03/08 09:23:14;;;;;;;;;;;;;;;13.66;80.78;99955.72;5093531;28;20289;-68
2023/03/08 09:25:39;;;;;;;;;;;;;;;13.53;74.57;99961.56;5093176;28;19969;-68
2023/03/08 09:28:04;;;;;;;;;;;;;;;13.61;76.97;99948.69;5093358;28;19912;-68
2023/03/08 09:30:31;;;;;;;;;;;;;;;13.72;76.05;99954.94;5093106;28;19912;-68
2023/03/08 09:32:57;;;;;;;;;;;;;;;13.95;76.33;99949.25;5093362;28;19912;-68
2023/03/08 09:35:22;;;;;;;;;;;;;;;14.07;74.10;99954.63;5093086;28;20410;-68
2023/03/08 09:37:47;;;;;;;;;;;;;;;13.93;73.31;99953.53;5093360;28;20406;-68
2023/03/08 09:40:17;;;;;;;;;;;;;;;14.08;70.77;99961.53;5093275;28;20430;-68
2023/03/08 09:42:42;;;;;;;;;;;;;;;14.16;69.00;99962.53;5092835;28;20433;-67
2023/03/08 09:45:23;;;;;;;;;;;;;;;14.51;66.80;99961.25;5092818;28;20045;-68
2023/03/08 09:48:03;;;;;;;;;;;;;;;14.60;65.30;99961.34;5092959;28;19912;-68
2023/03/08 09:50:34;;;;;;;;;;;;;;;14.75;64.50;99957.25;5092746;28;20014;-68
2023/03/08 09:53:06;;;;;;;;;;;;;;;14.87;59.69;99945.25;5092001;28;20317;-68
2023/03/08 09:55:33;;;;;;;;;;;;;;;14.84;59.86;99936.53;5092992;28;19969;-68
2023/03/08 09:57:58;;;;;;;;;;;;;;;14.76;59.74;99943.41;5092830;28;19912;-67
2023/03/08 10:00:34;;;;;;;;;;;;;;;14.85;62.19;99934.00;5092857;28;19923;-68
2023/03/08 10:03:02;;;;;;;;;;;;;;;14.81;64.84;99932.19;5091415;28;19923;-68
2023/03/08 10:05:37;;;;;;;;;;;;;;;14.96;61.26;99933.22;5092251;28;19951;-68
2023/03/08 10:08:05;;;;;;;;;;;;;;;15.05;59.52;99933.28;5092737;28;19912;-68
2023/03/08 10:10:49;;;;;;;;;;;;;;;15.11;60.35;99920.34;5092468;28;20015;-69
2023/03/08 10:13:14;;;;;;;;;;;;;;;15.17;61.78;99919.56;5092417;28;19912;-68
2023/03/08 10:15:46;;;;;;;;;;;;;;;15.31;58.91;99920.53;5092273;28;20361;-68
2023/03/08 10:18:15;;;;;;;;;;;;;;;15.30;56.56;99916.22;5092113;28;19911;-68
2023/03/08 10:20:41;;;;;;;;;;;;;;;15.22;56.40;99912.66;5092051;28;19919;-68
2023/03/08 10:23:14;;;;;;;;;;;;;;;15.35;56.65;99908.44;5092742;28;19912;-68
2023/03/08 10:25:40;;;;;;;;;;;;;;;15.27;57.59;99910.13;5092171;28;19912;-68
2023/03/08 10:28:10;;;;;;;;;;;;;;;15.65;57.24;99912.13;5092318;28;19934;-68
2023/03/08 10:30:38;;;;;;;;;;;;;;;15.87;58.48;99917.53;5091857;28;19908;-68
2023/03/08 10:33:09;;;;;;;;;;;;;;;15.69;56.13;99903.50;5092246;28;19969;-68
2023/03/08 10:35:36;;;;;;;;;;;;;;;15.90;57.03;99897.59;5091963;28;20301;-68
2023/03/08 10:38:02;;;;;;;;;;;;;;;15.91;56.65;99896.72;5091984;28;19912;-68
2023/03/08 10:40:28;;;;;;;;;;;;;;;15.92;56.19;99895.84;5092142;28;20394;-68
2023/03/08 10:42:59;;;;;;;;;;;;;;;16.06;56.78;99889.88;5091742;28;19958;-68
2023/03/08 10:45:27;;;;;;;;;;;;;;;16.38;55.29;99879.59;5091718;28;19926;-68
2023/03/08 10:48:02;;;;;;;;;;;;;;;16.58;54.12;99882.25;5091615;28;20311;-68
2023/03/08 10:50:35;;;;;;;;;;;;;;;16.62;56.39;99875.31;5091795;28;19934;-68
2023/03/08 10:53:14;;;;;;;;;;;;;;;16.91;53.34;99866.69;5091622;28;20032;-68
2023/03/08 10:55:46;;;;;;;;;;;;;;;16.77;52.79;99870.16;5091253;28;19920;-68
2023/03/08 10:58:29;;;;;;;;;;;;;;;16.72;53.81;99868.41;5091829;28;19923;-68
2023/03/08 11:00:56;;;;;;;;;;;;;;;16.98;52.97;99858.91;5091684;28;20002;-68
2023/03/08 11:03:23;;;;;;;;;;;;;;;16.88;51.53;99862.31;5091459;28;19915;-68
2023/03/08 11:05:54;;;;;;;;;;;;;;;17.11;51.93;99866.75;5090408;28;20343;-68
2023/03/08 11:08:22;;;;;;;;;;;;;;;17.44;50.41;99863.25;5091613;28;19923;-67
2023/03/08 11:10:47;;;;;;;;;;;;;;;17.05;49.51;99859.78;5091209;28;20343;-68
2023/03/08 11:13:15;;;;;;;;;;;;;;;17.11;50.66;99858.94;5091536;28;19908;-68
2023/03/08 11:15:43;;;;;;;;;;;;;;;17.54;48.03;99845.84;5091412;28;20014;-68
2023/03/08 11:18:21;;;;;;;;;;;;;;;17.88;45.31;99845.78;5091308;28;19915;-68
2023/03/08 11:20:50;;;;;;;;;;;;;;;18.04;45.09;99830.94;5091170;28;19968;-67
2023/03/08 11:23:15;;;;;;;;;;;;;;;17.47;47.22;99841.53;5091117;28;19916;-68
2023/03/08 11:25:43;;;;;;;;;;;;;;;17.16;48.46;99832.81;5091162;28;20309;-68
2023/03/08 11:28:47;;;;;;;;;;;;;;;17.24;49.63;99831.94;5091284;28;19919;-68
2023/03/08 11:31:13;;;;;;;;;;;;;;;17.52;47.26;99818.88;5028613;28;19913;-69
2023/03/08 11:33:41;;;;;;;;;;;;;;;17.50;46.46;99815.41;5028533;28;20004;-68
2023/03/08 11:36:06;;;;;;;;;;;;;;;17.31;47.39;99819.78;5028330;28;19916;-68
2023/03/08 11:38:33;;;;;;;;;;;;;;;17.33;45.33;99823.25;5028566;28;19951;-68
2023/03/08 11:40:59;;;;;;;;;;;;;;;17.55;46.36;99810.19;5028579;28;19920;-68
2023/03/08 11:43:24;;;;;;;;;;;;;;;17.57;45.81;99804.09;5028513;28;19913;-68
2023/03/08 11:46:08;;;;;;;;;;;;;;;17.63;46.63;99813.63;5028270;28;20370;-68
2023/03/08 11:48:48;;;;;;;;;;;;;;;17.55;45.08;99805.81;5028480;28;19913;-68
2023/03/08 11:51:25;;;;;;;;;;;;;;;17.34;44.64;99805.88;5028568;28;19916;-68
2023/03/08 11:54:26;;;;;;;;;;;;;;;17.23;45.28;99811.09;5028063;28;20012;-68
2023/03/08 11:56:57;;;;;;;;;;;;;;;17.44;45.01;99807.59;4989130;28;19921;-68
2023/03/08 11:59:59;;;;;;;;;;;;;;;17.53;44.23;99802.34;4989093;28;19918;-68
2023/03/08 12:02:35;;;;;;;;;;;;;;;17.54;43.19;99808.44;4929578;29;19925;-68
2023/03/08 12:05:26;;;;;;;;;;;;;;;17.48;42.05;99808.44;4931033;29;19921;-67
2023/03/08 12:07:57;;;;;;;;;;;;;;;17.31;44.01;99806.75;4931124;29;20380;-68
2023/03/08 12:10:28;;;;;;;;;;;;;;;17.44;44.50;99797.16;4930928;29;19915;-66
2023/03/08 12:12:57;;;;;;;;;;;;;;;17.48;44.66;99798.88;4930992;29;20128;-67
2023/03/08 12:15:30;;;;;;;;;;;;;;;17.36;45.63;99799.78;4931006;29;19910;-69
2023/03/08 12:18:09;;;;;;;;;;;;;;;17.48;47.24;99788.44;4931737;29;19944;-67
2023/03/08 12:20:37;;;;;;;;;;;;;;;17.70;44.44;99796.22;4934403;29;19934;-67
2023/03/08 12:23:15;;;;;;;;;;;;;;;17.85;44.17;99784.84;4934261;29;19915;-67
2023/03/08 12:25:42;;;;;;;;;;;;;;;17.51;45.61;99790.16;4925330;29;19949;-67
2023/03/08 12:28:10;;;;;;;;;;;;;;;17.46;46.46;99796.28;4926241;29;20404;-68
2023/03/08 12:30:56;;;;;;;;;;;;;;;17.60;46.92;99787.53;4956722;28;20000;-68
2023/03/08 12:33:21;;;;;;;;;;;;;;;17.87;45.78;99786.59;4991528;28;19918;-68
2023/03/08 12:35:50;;;;;;;;;;;;;;;18.04;45.04;99783.06;4991441;28;19913;-68
2023/03/08 12:38:18;;;;;;;;;;;;;;;18.21;44.90;99778.59;5052296;28;19972;-68
2023/03/08 12:40:51;;;;;;;;;;;;;;;18.37;44.29;99775.94;5092448;28;19912;-68
2023/03/08 12:43:19;;;;;;;;;;;;;;;18.47;44.19;99777.59;5093786;28;19919;-67
2023/03/08 12:45:46;;;;;;;;;;;;;;;18.42;42.85;99763.69;5092242;28;19919;-68
2023/03/08 12:48:25;;;;;;;;;;;;;;;18.45;43.26;99768.03;5093390;28;19912;-67